Time;durP1;ratioP1;P1;durP2;ratioP2;P2;SDS_P1;SDS_P2;PMS_P1;PMS_P2;Temp;Humidity;BMP_temperature;BMP_pressure;BME280_temperature;BME280_humidity;BME280_pressure;Samples;Min_cycle;Max_cycle;Signal;HPM_P1;HPM_P2
2023/05/17 00:00:05;;;;;;;;;;;;;;;14.73;100.00;98779.25;5050782;28;19924;-82
2023/05/17 00:02:31;;;;;;;;;;;;;;;14.66;100.00;98789.00;5050944;28;19921;-81
2023/05/17 00:04:56;;;;;;;;;;;;;;;14.58;100.00;98779.31;5050528;28;19942;-82
2023/05/17 00:07:21;;;;;;;;;;;;;;;14.47;100.00;98773.66;5050689;28;19923;-80
2023/05/17 00:09:47;;;;;;;;;;;;;;;14.42;100.00;98779.53;5050281;28;20368;-82
2023/05/17 00:12:12;;;;;;;;;;;;;;;14.37;100.00;98781.06;5050545;28;19931;-82
2023/05/17 00:14:37;;;;;;;;;;;;;;;14.41;100.00;98775.22;5050193;28;19917;-82
2023/05/17 00:17:03;;;;;;;;;;;;;;;14.42;100.00;98778.72;5050146;28;19927;-82
2023/05/17 00:19:28;;;;;;;;;;;;;;;14.39;100.00;98776.41;5052191;28;19952;-84
2023/05/17 00:21:53;;;;;;;;;;;;;;;14.42;100.00;98784.03;5049845;28;19920;-82
2023/05/17 00:24:19;;;;;;;;;;;;;;;14.43;100.00;98781.16;5050232;28;20327;-83
2023/05/17 00:26:44;;;;;;;;;;;;;;;14.46;100.00;98793.25;5049931;28;19917;-84
2023/05/17 00:29:09;;;;;;;;;;;;;;;14.45;100.00;98799.56;5050174;28;20403;-84
2023/05/17 00:31:35;;;;;;;;;;;;;;;14.46;100.00;98796.72;5050179;28;19916;-80
2023/05/17 00:34:00;;;;;;;;;;;;;;;14.47;100.00;98797.56;5049936;28;19923;-81
2023/05/17 00:36:25;;;;;;;;;;;;;;;14.49;100.00;98800.84;5048922;28;19917;-80
2023/05/17 00:38:51;;;;;;;;;;;;;;;14.46;100.00;98801.22;5045301;28;19917;-82
2023/05/17 00:41:16;;;;;;;;;;;;;;;14.44;100.00;98808.53;5048923;28;19923;-81
2023/05/17 00:43:42;;;;;;;;;;;;;;;14.32;100.00;98816.09;5049530;28;20392;-81
2023/05/17 00:46:08;;;;;;;;;;;;;;;14.33;100.00;98813.28;5049596;28;19920;-82
2023/05/17 00:48:34;;;;;;;;;;;;;;;14.29;100.00;98817.31;5050071;28;19916;-81
2023/05/17 00:50:59;;;;;;;;;;;;;;;14.33;100.00;98826.53;5049330;28;19920;-82
2023/05/17 00:53:25;;;;;;;;;;;;;;;14.28;100.00;98826.28;5048356;28;20004;-82
2023/05/17 00:55:50;;;;;;;;;;;;;;;14.23;100.00;98823.34;5048335;28;19963;-81
2023/05/17 00:58:16;;;;;;;;;;;;;;;14.22;100.00;98827.00;5047911;28;19925;-81
2023/05/17 01:00:42;;;;;;;;;;;;;;;14.23;100.00;98828.66;5043169;28;19921;-81
2023/05/17 01:03:07;;;;;;;;;;;;;;;14.27;100.00;98827.28;5045596;28;19917;-81
2023/05/17 01:05:34;;;;;;;;;;;;;;;14.22;100.00;98836.78;5047094;28;19921;-81
2023/05/17 01:08:01;;;;;;;;;;;;;;;14.16;100.00;98826.91;5046771;28;19924;-81
2023/05/17 01:10:56;;;;;;;;;;;;;;;14.18;100.00;98831.03;5047367;28;19916;-81
2023/05/17 01:13:32;;;;;;;;;;;;;;;14.22;100.00;98832.31;5029217;28;19916;-80
2023/05/17 01:16:08;;;;;;;;;;;;;;;14.18;100.00;98828.38;5046163;28;19917;-80
2023/05/17 01:18:39;;;;;;;;;;;;;;;14.15;100.00;98841.19;5053108;28;19917;-80
2023/05/17 01:21:08;;;;;;;;;;;;;;;14.18;100.00;98846.13;5329187;22;20362;-79
2023/05/17 01:23:40;;;;;;;;;;;;;;;14.12;100.00;98837.09;5031696;28;19949;-81
2023/05/17 01:26:07;;;;;;;;;;;;;;;14.18;100.00;98835.53;5033582;28;19917;-81
2023/05/17 01:28:32;;;;;;;;;;;;;;;14.18;100.00;98839.00;5031589;28;19931;-80
2023/05/17 01:31:01;;;;;;;;;;;;;;;14.20;100.00;98839.63;5030357;28;19963;-82
2023/05/17 01:33:26;;;;;;;;;;;;;;;14.19;100.00;98832.69;5029634;28;19917;-80
2023/05/17 01:35:51;;;;;;;;;;;;;;;14.20;100.00;98823.72;5029344;28;19917;-80
2023/05/17 01:38:18;;;;;;;;;;;;;;;14.19;100.00;98832.69;5015804;23;19921;-87
2023/05/17 01:40:47;;;;;;;;;;;;;;;14.18;100.00;98835.53;4971388;28;20275;-85
2023/05/17 01:43:19;;;;;;;;;;;;;;;14.09;100.00;98842.75;4970753;28;19918;-88
2023/05/17 01:45:49;;;;;;;;;;;;;;;14.11;100.00;98842.56;4971816;28;19945;-87
2023/05/17 01:48:22;;;;;;;;;;;;;;;14.10;100.00;98849.69;4974512;28;20004;-88
2023/05/17 01:50:51;;;;;;;;;;;;;;;14.15;100.00;98843.84;4976216;28;19925;-88
2023/05/17 01:53:24;;;;;;;;;;;;;;;14.15;100.00;98852.63;4976464;28;19930;-89
2023/05/17 01:55:51;;;;;;;;;;;;;;;14.20;100.00;98850.25;4960273;28;19981;-87
2023/05/17 01:58:20;;;;;;;;;;;;;;;14.17;100.00;98845.31;4978914;28;19949;-89
2023/05/17 02:00:46;;;;;;;;;;;;;;;14.19;100.00;98835.34;4977478;28;19925;-85
2023/05/17 02:03:18;;;;;;;;;;;;;;;14.24;100.00;98845.41;4977853;28;19918;-86
2023/05/17 02:05:43;;;;;;;;;;;;;;;14.25;100.00;98850.53;4975071;28;19957;-85
2023/05/17 02:08:08;;;;;;;;;;;;;;;14.25;100.00;98847.88;4973968;28;20613;-87
2023/05/17 02:10:34;;;;;;;;;;;;;;;14.24;100.00;98845.41;4977222;28;19924;-88
2023/05/17 02:12:59;;;;;;;;;;;;;;;14.24;100.00;98851.53;4978350;28;19921;-88
2023/05/17 02:15:25;;;;;;;;;;;;;;;14.20;100.00;98862.69;5014029;28;19949;-88
2023/05/17 02:17:51;;;;;;;;;;;;;;;14.04;100.00;98871.66;4997982;28;19917;-89
2023/05/17 02:20:16;;;;;;;;;;;;;;;13.85;100.00;98869.50;4985134;28;20456;-89
2023/05/17 02:22:42;;;;;;;;;;;;;;;13.75;100.00;98875.06;4974069;28;20487;-90
2023/05/17 02:25:07;;;;;;;;;;;;;;;13.74;100.00;98880.53;4973567;28;19922;-87
2023/05/17 02:27:33;;;;;;;;;;;;;;;13.69;100.00;98880.25;4957535;28;20486;-90
2023/05/17 02:30:00;;;;;;;;;;;;;;;13.76;100.00;98879.38;4974368;28;19933;-85
2023/05/17 02:32:26;;;;;;;;;;;;;;;13.59;100.00;98877.03;4973292;28;20385;-87
2023/05/17 02:34:51;;;;;;;;;;;;;;;13.73;100.00;98873.59;5000770;28;19918;-87
2023/05/17 02:37:16;;;;;;;;;;;;;;;13.62;100.00;98887.28;4974927;28;20025;-87
2023/05/17 02:39:43;;;;;;;;;;;;;;;13.61;100.00;98890.94;4972614;28;20306;-86
2023/05/17 02:42:08;;;;;;;;;;;;;;;13.65;100.00;98886.94;4973990;28;19929;-87
2023/05/17 02:44:33;;;;;;;;;;;;;;;13.60;100.00;98886.66;4973396;28;19918;-89
2023/05/17 02:46:59;;;;;;;;;;;;;;;13.63;100.00;98894.22;4973805;28;19922;-90
2023/05/17 02:49:24;;;;;;;;;;;;;;;13.69;100.00;98894.34;4974465;28;19964;-87
2023/05/17 02:51:50;;;;;;;;;;;;;;;13.52;100.00;98901.59;4971944;28;19989;-89
2023/05/17 02:54:16;;;;;;;;;;;;;;;13.43;100.00;98905.31;4972882;28;19948;-91
2023/05/17 02:56:41;;;;;;;;;;;;;;;13.21;100.00;98905.28;4972353;28;19918;-87
2023/05/17 02:59:07;;;;;;;;;;;;;;;12.99;100.00;98896.28;4971955;28;19922;-89
2023/05/17 03:01:34;;;;;;;;;;;;;;;13.13;100.00;98898.25;4973467;28;19925;-89
2023/05/17 03:04:01;;;;;;;;;;;;;;;13.20;100.00;98909.75;4989136;28;20412;-90
2023/05/17 03:06:26;;;;;;;;;;;;;;;13.29;100.00;98911.38;4972946;28;19921;-89
2023/05/17 03:08:51;;;;;;;;;;;;;;;13.32;100.00;98902.25;4971888;28;19922;-89
2023/05/17 03:11:17;;;;;;;;;;;;;;;13.42;100.00;98902.84;4973745;28;19922;-89
2023/05/17 03:13:42;;;;;;;;;;;;;;;13.46;100.00;98901.50;4973447;28;19925;-88
2023/05/17 03:16:10;;;;;;;;;;;;;;;13.46;100.00;98902.31;4972552;28;20005;-88
2023/05/17 03:18:35;;;;;;;;;;;;;;;13.53;100.00;98905.09;4972616;28;20004;-93
2023/05/17 03:21:01;;;;;;;;;;;;;;;13.51;100.00;98913.22;4973246;28;19988;-89
2023/05/17 03:23:26;;;;;;;;;;;;;;;13.42;100.00;98902.84;4956148;28;19921;-89
2023/05/17 03:25:57;;;;;;;;;;;;;;;13.36;100.00;98896.44;4973489;28;19973;-88
2023/05/17 03:28:23;;;;;;;;;;;;;;;13.35;100.00;98901.91;4972522;28;20330;-86
2023/05/17 03:30:48;;;;;;;;;;;;;;;13.40;100.00;98907.50;4971440;28;19914;-84
2023/05/17 03:33:14;;;;;;;;;;;;;;;13.49;100.00;98915.19;4972042;28;19918;-85
2023/05/17 03:35:40;;;;;;;;;;;;;;;13.52;100.00;98908.72;4972757;28;20001;-86
2023/05/17 03:38:05;;;;;;;;;;;;;;;13.55;100.00;98918.97;4971798;28;19961;-87
2023/05/17 03:40:31;;;;;;;;;;;;;;;13.55;100.00;98923.47;4972204;28;19918;-92
2023/05/17 03:42:58;;;;;;;;;;;;;;;13.39;100.00;98919.09;4973567;28;19970;-91
2023/05/17 03:45:25;;;;;;;;;;;;;;;13.25;100.00;98920.69;4975504;28;19925;-93
2023/05/17 03:47:51;;;;;;;;;;;;;;;13.30;100.00;98928.94;4974873;28;19941;-92
2023/05/17 03:50:16;;;;;;;;;;;;;;;13.34;100.00;98932.88;4974069;28;19926;-92
2023/05/17 03:52:44;;;;;;;;;;;;;;;13.32;100.00;98929.56;4963083;28;19938;-92
2023/05/17 03:55:10;;;;;;;;;;;;;;;13.34;100.00;98926.75;4995409;28;19941;-91
2023/05/17 03:57:35;;;;;;;;;;;;;;;13.21;100.00;98937.09;4980257;28;19961;-93
2023/05/17 04:00:01;;;;;;;;;;;;;;;13.26;100.00;98955.94;4978873;28;19922;-91
2023/05/17 04:02:26;;;;;;;;;;;;;;;13.23;100.00;98951.81;4994870;28;19925;-91
2023/05/17 04:04:52;;;;;;;;;;;;;;;13.30;100.00;98947.47;4994001;28;19989;-92
2023/05/17 04:07:18;;;;;;;;;;;;;;;13.23;100.00;98951.81;4987991;28;19926;-93
2023/05/17 04:09:45;;;;;;;;;;;;;;;13.17;100.00;98952.50;4957404;28;20327;-88
2023/05/17 04:12:10;;;;;;;;;;;;;;;13.14;100.00;98963.44;4974464;28;19925;-87
2023/05/17 04:14:36;;;;;;;;;;;;;;;13.08;100.00;98964.09;4973325;28;19918;-90
2023/05/17 04:17:02;;;;;;;;;;;;;;;13.06;100.00;98956.34;4972681;28;19925;-90
2023/05/17 04:19:28;;;;;;;;;;;;;;;13.00;100.00;98961.50;4974170;28;20040;-91
2023/05/17 04:21:53;;;;;;;;;;;;;;;13.00;100.00;98956.22;4972432;28;20392;-90
2023/05/17 04:24:21;;;;;;;;;;;;;;;12.97;100.00;98967.97;4987458;28;20044;-85
2023/05/17 04:26:47;;;;;;;;;;;;;;;13.02;100.00;98964.78;4971248;28;20022;-89
2023/05/17 04:29:12;;;;;;;;;;;;;;;13.12;100.00;98970.75;4971890;28;19918;-87
2023/05/17 04:31:37;;;;;;;;;;;;;;;13.13;100.00;98980.38;4972841;28;20438;-88
2023/05/17 04:34:03;;;;;;;;;;;;;;;13.15;100.00;98969.56;4971515;28;19918;-87
2023/05/17 04:36:29;;;;;;;;;;;;;;;13.11;100.00;98977.03;4971629;28;19953;-88
2023/05/17 04:38:55;;;;;;;;;;;;;;;13.00;100.00;98972.09;4970397;28;20326;-87
2023/05/17 04:41:24;;;;;;;;;;;;;;;12.93;100.00;98976.44;4967766;28;19918;-88
2023/05/17 04:43:50;;;;;;;;;;;;;;;12.93;100.00;98974.63;4970656;28;19925;-88
2023/05/17 04:46:22;;;;;;;;;;;;;;;12.91;100.00;98978.41;4970850;28;19918;-88
2023/05/17 04:48:48;;;;;;;;;;;;;;;13.04;100.00;98981.34;4971940;28;19932;-86
2023/05/17 04:51:13;;;;;;;;;;;;;;;13.08;100.00;98980.00;4971773;28;19925;-89
2023/05/17 04:53:38;;;;;;;;;;;;;;;13.12;100.00;98986.66;4972133;28;19917;-89
2023/05/17 04:56:09;;;;;;;;;;;;;;;13.00;100.00;99001.25;4971146;28;20371;-88
2023/05/17 04:58:34;;;;;;;;;;;;;;;13.00;100.00;99003.88;4971473;28;19918;-89
2023/05/17 05:01:02;;;;;;;;;;;;;;;13.06;100.00;99013.78;4954691;28;20319;-88
2023/05/17 05:03:27;;;;;;;;;;;;;;;13.15;100.00;99010.13;4971054;28;19926;-87
2023/05/17 05:05:54;;;;;;;;;;;;;;;13.21;100.00;99027.16;4970608;28;19962;-88
2023/05/17 05:08:19;;;;;;;;;;;;;;;13.30;100.00;99024.31;4973060;28;19941;-88
2023/05/17 05:10:45;;;;;;;;;;;;;;;13.39;100.00;99025.94;4970409;28;19918;-88
2023/05/17 05:13:11;;;;;;;;;;;;;;;13.46;100.00;99023.41;4970342;28;19925;-90
2023/05/17 05:15:38;;;;;;;;;;;;;;;13.43;100.00;99032.53;4970967;28;19969;-91
2023/05/17 05:18:03;;;;;;;;;;;;;;;13.48;100.00;99027.56;4973280;28;19918;-89
2023/05/17 05:20:29;;;;;;;;;;;;;;;13.31;100.00;99017.19;4971146;28;19922;-87
2023/05/17 05:22:57;;;;;;;;;;;;;;;13.26;100.00;99030.94;4972393;28;19925;-86
2023/05/17 05:25:22;;;;;;;;;;;;;;;13.15;100.00;99039.28;4986962;28;19918;-89
2023/05/17 05:27:48;;;;;;;;;;;;;;;13.15;100.00;99018.09;4973989;28;19971;-92
2023/05/17 05:30:20;;;;;;;;;;;;;;;13.12;100.00;99007.84;4977121;28;19918;-91
2023/05/17 05:32:48;;;;;;;;;;;;;;;13.19;100.00;99019.41;4975589;28;19922;-91
2023/05/17 05:35:13;;;;;;;;;;;;;;;13.20;100.00;99026.34;4973798;28;20390;-84
2023/05/17 05:37:41;;;;;;;;;;;;;;;13.26;100.00;99025.66;4975869;28;19961;-82
2023/05/17 05:40:07;;;;;;;;;;;;;;;13.31;100.00;99027.81;4972993;28;20290;-83
2023/05/17 05:42:33;;;;;;;;;;;;;;;13.42;100.00;99036.19;4974321;28;20379;-84
2023/05/17 05:44:58;;;;;;;;;;;;;;;13.51;100.00;99040.44;4973512;28;19945;-86
2023/05/17 05:47:24;;;;;;;;;;;;;;;13.49;100.00;99049.56;4970643;28;19918;-88
2023/05/17 05:49:53;;;;;;;;;;;;;;;13.55;100.00;99045.41;4974583;28;19977;-83
2023/05/17 05:52:19;;;;;;;;;;;;;;;13.61;100.00;99061.41;4977249;28;19933;-89
2023/05/17 05:54:45;;;;;;;;;;;;;;;13.62;100.00;99064.91;4997622;28;19918;-85
2023/05/17 05:57:12;;;;;;;;;;;;;;;13.60;100.00;99051.00;4980549;28;20401;-86
2023/05/17 05:59:38;;;;;;;;;;;;;;;13.57;100.00;99059.28;4991902;28;19922;-85
2023/05/17 06:02:04;;;;;;;;;;;;;;;13.52;100.00;99052.69;4992706;28;19925;-89
2023/05/17 06:04:29;;;;;;;;;;;;;;;13.50;100.00;99038.78;4988285;28;19918;-87
2023/05/17 06:06:55;;;;;;;;;;;;;;;13.53;100.00;99059.66;4976527;28;19918;-84
2023/05/17 06:09:20;;;;;;;;;;;;;;;13.56;100.00;99062.94;4977047;28;19918;-88
2023/05/17 06:11:45;;;;;;;;;;;;;;;13.62;100.00;99062.25;4980652;28;19924;-90
2023/05/17 06:14:11;;;;;;;;;;;;;;;13.60;100.00;99048.34;4973116;28;20036;-82
2023/05/17 06:16:36;;;;;;;;;;;;;;;13.64;100.00;99054.97;4972050;28;20334;-89
2023/05/17 06:19:02;;;;;;;;;;;;;;;13.74;100.00;99069.63;4973334;28;19930;-87
2023/05/17 06:21:27;;;;;;;;;;;;;;;13.84;100.00;99085.34;4979556;28;19960;-87
2023/05/17 06:23:53;;;;;;;;;;;;;;;13.93;100.00;99108.16;4991889;28;20322;-86
2023/05/17 06:26:18;;;;;;;;;;;;;;;13.93;100.00;99092.25;4994705;28;19922;-87
2023/05/17 06:28:43;;;;;;;;;;;;;;;13.85;100.00;99073.72;4992235;28;19912;-86
2023/05/17 06:31:09;;;;;;;;;;;;;;;13.85;100.00;99089.63;4993113;28;19925;-84
2023/05/17 06:33:34;;;;;;;;;;;;;;;13.89;100.00;99088.28;4992481;28;19954;-85
2023/05/17 06:36:00;;;;;;;;;;;;;;;13.96;100.00;99102.47;4988192;28;19983;-86
2023/05/17 06:38:25;;;;;;;;;;;;;;;13.85;100.00;99100.22;4976345;28;19918;-86
2023/05/17 06:40:54;;;;;;;;;;;;;;;13.92;100.00;99115.28;4975568;28;19973;-87
2023/05/17 06:43:20;;;;;;;;;;;;;;;13.98;100.00;99134.97;4989192;28;19960;-87
2023/05/17 06:45:45;;;;;;;;;;;;;;;13.98;100.00;99148.25;4985126;28;19914;-87
2023/05/17 06:48:11;;;;;;;;;;;;;;;14.02;100.00;99149.53;4975074;28;20013;-87
2023/05/17 06:50:36;;;;;;;;;;;;;;;14.05;100.00;99146.56;4974739;28;19918;-86
2023/05/17 06:53:02;;;;;;;;;;;;;;;14.07;100.00;99141.06;4972837;28;20491;-86
2023/05/17 06:55:27;;;;;;;;;;;;;;;14.11;100.00;99131.75;4973558;28;19925;-87
2023/05/17 06:57:53;;;;;;;;;;;;;;;14.15;100.00;99133.88;4974325;28;19973;-86
2023/05/17 07:00:18;;;;;;;;;;;;;;;14.07;100.00;99130.47;4974531;28;20346;-86
2023/05/17 07:02:43;;;;;;;;;;;;;;;13.98;100.00;99120.88;4973980;28;20310;-86
2023/05/17 07:05:09;;;;;;;;;;;;;;;13.99;100.00;99122.53;4973928;28;20414;-86
2023/05/17 07:07:35;;;;;;;;;;;;;;;14.04;100.00;99126.31;4972476;28;19918;-86
2023/05/17 07:10:00;;;;;;;;;;;;;;;14.13;100.00;99149.16;4973705;28;20020;-86
2023/05/17 07:12:26;;;;;;;;;;;;;;;14.17;100.00;99158.41;4979718;28;19949;-87
2023/05/17 07:14:51;;;;;;;;;;;;;;;14.23;100.00;99178.94;4974101;28;19921;-87
2023/05/17 07:17:16;;;;;;;;;;;;;;;14.31;100.00;99183.38;4973929;28;20353;-86
2023/05/17 07:19:42;;;;;;;;;;;;;;;14.34;100.00;99191.00;4972918;28;19959;-87
2023/05/17 07:22:07;;;;;;;;;;;;;;;14.39;100.00;99193.13;4973858;28;20386;-86
2023/05/17 07:24:34;;;;;;;;;;;;;;;14.41;100.00;99207.06;4973936;28;19918;-87
2023/05/17 07:27:00;;;;;;;;;;;;;;;14.42;100.00;99203.41;4972863;28;20551;-86
2023/05/17 07:29:25;;;;;;;;;;;;;;;14.47;100.00;99206.38;4955082;28;19965;-85
2023/05/17 07:31:50;;;;;;;;;;;;;;;14.56;100.00;99215.91;4977449;28;19918;-84
2023/05/17 07:34:16;;;;;;;;;;;;;;;14.57;100.00;99222.88;4972705;28;19922;-85
2023/05/17 07:36:41;;;;;;;;;;;;;;;14.60;100.00;99227.88;4972285;28;20107;-85
2023/05/17 07:39:08;;;;;;;;;;;;;;;14.61;100.00;99230.31;4972747;28;19918;-84
2023/05/17 07:41:33;;;;;;;;;;;;;;;14.67;100.00;99234.09;4971622;28;19944;-85
2023/05/17 07:43:58;;;;;;;;;;;;;;;14.73;100.00;99238.72;4974136;28;19914;-85
2023/05/17 07:46:24;;;;;;;;;;;;;;;14.79;100.00;99238.00;4974048;28;19922;-83
2023/05/17 07:48:49;;;;;;;;;;;;;;;14.85;100.00;99247.09;4972094;28;20041;-85
2023/05/17 07:51:15;;;;;;;;;;;;;;;14.91;100.00;99247.22;4972727;28;19914;-84
2023/05/17 07:53:40;;;;;;;;;;;;;;;14.95;100.00;99253.84;4955827;28;19973;-85
2023/05/17 07:56:06;;;;;;;;;;;;;;;14.99;100.00;99254.28;4972865;28;19920;-85
2023/05/17 07:58:31;;;;;;;;;;;;;;;15.00;100.00;99264.75;4972627;28;20016;-86
2023/05/17 08:00:58;;;;;;;;;;;;;;;14.99;100.00;99265.75;4972546;28;20035;-85
2023/05/17 08:03:23;;;;;;;;;;;;;;;14.90;100.00;99266.84;4971771;28;20374;-85
2023/05/17 08:05:48;;;;;;;;;;;;;;;14.93;100.00;99285.06;4973291;28;19945;-86
2023/05/17 08:08:14;;;;;;;;;;;;;;;14.98;100.00;99285.34;4973280;28;19918;-88
2023/05/17 08:10:39;;;;;;;;;;;;;;;15.02;100.00;99286.63;4973784;28;19949;-87
2023/05/17 08:13:05;;;;;;;;;;;;;;;15.07;100.00;99284.31;4973797;28;19917;-86
2023/05/17 08:15:30;;;;;;;;;;;;;;;15.04;100.00;99292.63;4973639;28;19933;-88
2023/05/17 08:17:55;;;;;;;;;;;;;;;15.10;100.00;99305.19;4974063;28;19924;-88
2023/05/17 08:20:21;;;;;;;;;;;;;;;15.14;100.00;99317.13;4972891;28;19925;-88
2023/05/17 08:22:46;;;;;;;;;;;;;;;15.18;100.00;99312.28;4973716;28;19921;-88
2023/05/17 08:25:12;;;;;;;;;;;;;;;15.26;100.00;99314.03;4974989;28;19918;-88
2023/05/17 08:27:37;;;;;;;;;;;;;;;15.33;100.00;99325.63;4973543;28;19922;-87
2023/05/17 08:30:04;;;;;;;;;;;;;;;15.41;100.00;99333.53;4972546;28;19929;-89
2023/05/17 08:32:29;;;;;;;;;;;;;;;15.51;100.00;99339.41;4971493;28;20021;-86
2023/05/17 08:34:56;;;;;;;;;;;;;;;15.64;100.00;99345.00;4623736;28;10000520;-86
2023/05/17 08:37:23;;;;;;;;;;;;;;;15.73;100.00;99346.56;4969564;28;20287;-86
2023/05/17 08:39:50;;;;;;;;;;;;;;;15.87;100.00;99347.59;4970379;28;19926;-87
2023/05/17 08:42:20;;;;;;;;;;;;;;;15.96;100.00;99350.00;4970632;28;19929;-87
2023/05/17 08:44:46;;;;;;;;;;;;;;;16.07;100.00;99355.91;4970164;28;19922;-87
2023/05/17 08:47:12;;;;;;;;;;;;;;;16.22;100.00;99364.69;4985184;28;19942;-86
2023/05/17 08:49:38;;;;;;;;;;;;;;;16.29;100.00;99360.31;4970934;28;19922;-88
2023/05/17 08:52:08;;;;;;;;;;;;;;;16.35;100.00;99364.88;4971370;28;19929;-87
2023/05/17 08:54:35;;;;;;;;;;;;;;;16.45;100.00;99365.44;4953174;28;19945;-87
2023/05/17 08:57:03;;;;;;;;;;;;;;;16.55;100.00;99371.28;4971652;28;19981;-86
2023/05/17 08:59:32;;;;;;;;;;;;;;;16.64;100.00;99369.41;4973325;28;19948;-87
2023/05/17 09:01:58;;;;;;;;;;;;;;;16.69;100.00;99367.81;4968921;28;19922;-86
2023/05/17 09:04:23;;;;;;;;;;;;;;;16.67;100.00;99380.50;4972879;28;19918;-86
2023/05/17 09:06:49;;;;;;;;;;;;;;;16.65;100.00;99377.22;4973297;28;20410;-87
2023/05/17 09:09:14;;;;;;;;;;;;;;;16.69;100.00;99386.47;4974396;28;19957;-92
2023/05/17 09:11:40;;;;;;;;;;;;;;;16.69;100.00;99383.81;4974269;28;19944;-88
2023/05/17 09:14:06;;;;;;;;;;;;;;;16.60;100.00;99392.09;4981135;28;19928;-90
2023/05/17 09:16:35;;;;;;;;;;;;;;;16.60;100.00;99384.94;4973125;28;19922;-89
2023/05/17 09:19:02;;;;;;;;;;;;;;;16.57;100.00;99390.59;4611337;28;10000572;-91
2023/05/17 09:21:30;;;;;;;;;;;;;;;16.63;100.00;99389.03;4974748;28;19925;-91
2023/05/17 09:24:00;;;;;;;;;;;;;;;16.52;100.00;99387.66;4983697;22;19918;-92
2023/05/17 09:26:36;;;;;;;;;;;;;;;16.61;100.00;99397.22;4991119;28;19930;-92
2023/05/17 09:29:01;;;;;;;;;;;;;;;16.61;100.00;99402.53;4990093;28;19929;-91
2023/05/17 09:31:26;;;;;;;;;;;;;;;16.56;100.00;99398.75;4996864;28;19918;-93
2023/05/17 09:33:52;;;;;;;;;;;;;;;16.56;100.00;99404.91;4997003;28;19940;-92
2023/05/17 09:36:19;;;;;;;;;;;;;;;16.53;100.00;99410.63;4996340;28;19925;-91
2023/05/17 09:38:55;;;;;;;;;;;;;;;16.50;100.00;99408.31;4997562;28;19933;-91
2023/05/17 09:41:21;;;;;;;;;;;;;;;16.54;100.00;99412.28;4986903;28;19917;-92
2023/05/17 09:43:47;;;;;;;;;;;;;;;16.57;100.00;99417.22;5041050;28;19910;-90
2023/05/17 09:46:14;;;;;;;;;;;;;;;16.61;100.00;99436.38;5014221;28;19937;-91
2023/05/17 09:48:39;;;;;;;;;;;;;;;16.52;100.00;99435.59;4999365;28;19949;-91
2023/05/17 09:51:06;;;;;;;;;;;;;;;16.47;100.00;99435.31;5015988;28;19906;-91
2023/05/17 09:53:32;;;;;;;;;;;;;;;16.52;100.00;99448.91;4984671;28;20001;-92
2023/05/17 09:56:01;;;;;;;;;;;;;;;16.44;100.00;99449.00;4993734;28;19944;-93
2023/05/17 09:58:30;;;;;;;;;;;;;;;16.32;100.00;99455.78;4990412;28;19964;-93
2023/05/17 10:01:05;;;;;;;;;;;;;;;16.22;100.00;99456.06;5001955;28;19918;-92
2023/05/17 10:03:31;;;;;;;;;;;;;;;16.14;100.00;99468.63;4974419;28;20007;-92
2023/05/17 10:05:58;;;;;;;;;;;;;;;16.14;100.00;99473.94;4993246;28;19918;-91
2023/05/17 10:08:26;;;;;;;;;;;;;;;16.08;100.00;99470.16;4994180;28;19924;-92
2023/05/17 10:10:57;;;;;;;;;;;;;;;16.14;100.00;99479.28;4994029;28;19918;-90
2023/05/17 10:13:24;;;;;;;;;;;;;;;16.09;100.00;99471.81;4993739;28;20389;-92
2023/05/17 10:15:50;;;;;;;;;;;;;;;16.09;100.00;99481.63;4976456;28;19925;-92
2023/05/17 10:18:16;;;;;;;;;;;;;;;16.09;100.00;99486.94;4995672;28;19925;-87
2023/05/17 10:20:42;;;;;;;;;;;;;;;16.09;100.00;99482.44;4995356;28;19918;-89
2023/05/17 10:23:08;;;;;;;;;;;;;;;16.13;100.00;99490.91;4993067;28;20001;-88
2023/05/17 10:25:34;;;;;;;;;;;;;;;16.09;100.00;99481.63;4994038;28;19922;-88
2023/05/17 10:28:00;;;;;;;;;;;;;;;16.15;100.00;99491.56;4993510;28;19933;-88
2023/05/17 10:30:27;;;;;;;;;;;;;;;16.09;100.00;99490.44;4994976;28;19941;-92
2023/05/17 10:32:53;;;;;;;;;;;;;;;16.07;100.00;99500.47;4995667;28;19918;-91
2023/05/17 10:35:20;;;;;;;;;;;;;;;16.12;100.00;99491.94;4995701;28;20393;-90
2023/05/17 10:37:45;;;;;;;;;;;;;;;15.97;100.00;99490.03;4995439;28;20314;-90
2023/05/17 10:40:14;;;;;;;;;;;;;;;16.10;100.00;99494.75;4994138;28;19957;-88
2023/05/17 10:42:58;;;;;;;;;;;;;;;16.07;100.00;99494.31;4994855;28;19945;-88
2023/05/17 10:45:26;;;;;;;;;;;;;;;16.15;100.00;99496.88;4993458;28;19925;-90
2023/05/17 10:47:52;;;;;;;;;;;;;;;16.23;100.00;99500.31;4993359;28;20301;-89
2023/05/17 10:50:24;;;;;;;;;;;;;;;16.38;100.00;99502.97;4992780;28;19924;-88
2023/05/17 10:52:50;;;;;;;;;;;;;;;16.44;100.00;99496.94;4994023;28;19928;-88
2023/05/17 10:55:19;;;;;;;;;;;;;;;16.46;100.00;99510.91;4994141;28;19918;-90
2023/05/17 10:57:56;;;;;;;;;;;;;;;16.45;100.00;99509.25;4994028;28;19918;-90
2023/05/17 11:00:29;;;;;;;;;;;;;;;16.57;100.00;99517.63;4993681;28;20004;-89
2023/05/17 11:03:10;;;;;;;;;;;;;;;16.55;100.00;99515.13;4994089;28;19972;-90
2023/05/17 11:05:35;;;;;;;;;;;;;;;16.44;100.00;99518.25;4992840;28;19949;-90
2023/05/17 11:08:14;;;;;;;;;;;;;;;16.49;100.00;99521.22;4993328;28;20345;-90
2023/05/17 11:10:59;;;;;;;;;;;;;;;16.42;100.00;99527.44;4993511;28;20341;-88
2023/05/17 11:13:28;;;;;;;;;;;;;;;16.29;100.00;99520.06;4970627;28;19917;-90
2023/05/17 11:16:02;;;;;;;;;;;;;;;16.13;100.00;99525.53;4993013;28;19918;-88
2023/05/17 11:18:44;;;;;;;;;;;;;;;16.09;100.00;99527.69;4972218;28;20401;-88
2023/05/17 11:21:12;;;;;;;;;;;;;;;16.00;100.00;99530.63;4990756;28;19922;-90
2023/05/17 11:23:38;;;;;;;;;;;;;;;15.95;100.00;99526.66;4993424;28;20339;-88
2023/05/17 11:26:11;;;;;;;;;;;;;;;16.00;100.00;99533.28;4992669;28;19953;-90
2023/05/17 11:28:37;;;;;;;;;;;;;;;15.95;100.00;99529.31;4993035;28;19980;-88
2023/05/17 11:31:04;;;;;;;;;;;;;;;15.93;100.00;99535.81;4992619;28;20274;-89
2023/05/17 11:33:37;;;;;;;;;;;;;;;15.89;100.00;99530.03;4992633;28;19948;-89
2023/05/17 11:36:12;;;;;;;;;;;;;;;15.88;100.00;99533.69;4991570;28;20044;-89
2023/05/17 11:38:37;;;;;;;;;;;;;;;15.84;100.00;99527.09;4993049;28;19917;-89
2023/05/17 11:41:20;;;;;;;;;;;;;;;15.83;100.00;99524.59;4993586;28;19921;-90
2023/05/17 11:43:47;;;;;;;;;;;;;;;15.79;100.00;99524.09;4992677;28;19961;-89
2023/05/17 11:46:22;;;;;;;;;;;;;;;15.78;100.00;99527.78;4993043;28;19917;-89
2023/05/17 11:48:51;;;;;;;;;;;;;;;15.82;100.00;99539.72;4992436;28;19918;-88
2023/05/17 11:51:18;;;;;;;;;;;;;;;15.78;100.00;99527.78;4992614;28;19925;-89
2023/05/17 11:53:45;;;;;;;;;;;;;;;15.73;100.00;99532.78;4991814;28;19922;-88
2023/05/17 11:56:11;;;;;;;;;;;;;;;15.67;100.00;99530.81;4991972;28;20004;-89
2023/05/17 11:58:37;;;;;;;;;;;;;;;15.71;100.00;99531.31;4991657;28;19957;-89
2023/05/17 12:01:03;;;;;;;;;;;;;;;15.65;100.00;99532.03;4991345;28;20310;-88
2023/05/17 12:03:30;;;;;;;;;;;;;;;15.64;100.00;99533.84;4990584;28;20379;-88
2023/05/17 12:06:06;;;;;;;;;;;;;;;15.66;100.00;99529.19;4990960;28;20392;-89
2023/05/17 12:08:37;;;;;;;;;;;;;;;15.66;100.00;99531.03;4979317;28;19918;-88
2023/05/17 12:11:03;;;;;;;;;;;;;;;15.50;100.00;99531.91;4984650;28;20346;-88
2023/05/17 12:13:30;;;;;;;;;;;;;;;15.49;100.00;99530.25;4990761;28;19923;-90
2023/05/17 12:15:56;;;;;;;;;;;;;;;15.38;100.00;99523.47;4987843;28;20270;-89
2023/05/17 12:18:22;;;;;;;;;;;;;;;15.47;100.00;99533.09;4989991;28;20005;-89
2023/05/17 12:20:54;;;;;;;;;;;;;;;15.36;100.00;99525.50;4991322;28;20320;-89
2023/05/17 12:23:27;;;;;;;;;;;;;;;15.03;100.00;99522.16;4990050;28;20398;-88
2023/05/17 12:26:00;;;;;;;;;;;;;;;15.03;100.00;99511.50;4990788;28;19917;-90
2023/05/17 12:28:26;;;;;;;;;;;;;;;14.97;100.00;99512.19;4987264;28;20389;-88
2023/05/17 12:30:56;;;;;;;;;;;;;;;15.07;100.00;99499.56;4990666;28;19917;-90
2023/05/17 12:33:22;;;;;;;;;;;;;;;15.00;100.00;99500.41;4989889;28;19925;-88